Time;durP1;ratioP1;P1;durP2;ratioP2;P2;SDS_P1;SDS_P2;PMS_P1;PMS_P2;Temp;Humidity;BMP_temperature;BMP_pressure;BME280_temperature;BME280_humidity;BME280_pressure;Samples;Min_cycle;Max_cycle;Signal;HPM_P1;HPM_P2
2023/03/28 00:00:29;;;;;;;3.90;1.40;;;4.70;84.10;;;;;;5075823;28;20111;-75
2023/03/28 00:02:55;;;;;;;4.82;1.70;;;4.70;84.10;;;;;;5075704;28;20032;-75
2023/03/28 00:05:22;;;;;;;4.20;1.48;;;4.70;84.20;;;;;;5058069;28;20021;-74
2023/03/28 00:07:52;;;;;;;6.00;1.92;;;4.70;84.10;;;;;;5075679;28;20013;-75
2023/03/28 00:10:18;;;;;;;4.80;2.03;;;4.80;84.30;;;;;;5074650;28;20088;-75
2023/03/28 00:12:44;;;;;;;5.47;1.70;;;4.80;84.30;;;;;;5075598;28;20052;-75
2023/03/28 00:15:10;;;;;;;4.57;1.60;;;4.80;84.40;;;;;;5074857;28;20029;-74
2023/03/28 00:17:36;;;;;;;5.30;1.63;;;4.80;84.50;;;;;;5075534;28;20047;-75
2023/03/28 00:20:03;;;;;;;3.03;1.25;;;4.90;84.60;;;;;;5074483;28;20033;-75
2023/03/28 00:22:32;;;;;;;2.78;1.30;;;4.90;84.60;;;;;;5074302;28;20040;-74
2023/03/28 00:24:57;;;;;;;4.75;1.63;;;4.80;84.40;;;;;;5074533;28;20051;-74
2023/03/28 00:27:24;;;;;;;3.67;1.45;;;4.90;84.60;;;;;;5074181;28;20029;-75
2023/03/28 00:29:50;;;;;;;4.50;1.40;;;4.90;84.50;;;;;;5074331;28;20025;-75
2023/03/28 00:32:15;;;;;;;4.07;1.23;;;4.80;84.40;;;;;;5075339;28;20088;-75
2023/03/28 00:34:41;;;;;;;4.07;1.30;;;4.80;84.40;;;;;;5075133;28;20037;-75
2023/03/28 00:37:09;;;;;;;3.35;1.10;;;4.90;84.30;;;;;;5057539;28;20029;-74
2023/03/28 00:39:36;;;;;;;3.30;1.27;;;4.90;84.10;;;;;;5073822;28;20048;-74
2023/03/28 00:42:02;;;;;;;4.38;1.40;;;4.80;83.90;;;;;;5074977;28;20064;-74
2023/03/28 00:44:40;;;;;;;3.03;1.27;;;4.80;83.50;;;;;;5074992;28;20013;-75
2023/03/28 00:47:24;;;;;;;5.60;1.45;;;4.70;83.40;;;;;;5075091;28;20067;-75
2023/03/28 00:49:55;;;;;;;6.57;2.10;;;4.70;83.60;;;;;;5074885;28;20028;-74
2023/03/28 00:52:24;;;;;;;2.90;1.65;;;4.70;84.00;;;;;;5074888;28;20025;-74
2023/03/28 00:54:51;;;;;;;2.88;1.55;;;4.60;84.40;;;;;;5074755;28;20021;-74
2023/03/28 00:57:17;;;;;;;2.58;1.67;;;4.60;84.50;;;;;;5074755;28;20083;-74
2023/03/28 00:59:43;;;;;;;3.38;1.20;;;4.60;84.40;;;;;;5074678;28;20035;-75
2023/03/28 01:02:10;;;;;;;6.53;2.08;;;4.60;84.40;;;;;;5073697;28;20029;-74
2023/03/28 01:04:45;;;;;;;6.60;2.13;;;4.60;84.50;;;;;;5074610;28;20028;-75
2023/03/28 01:07:12;;;;;;;3.88;1.95;;;4.60;84.80;;;;;;5074594;28;20013;-75
2023/03/28 01:09:38;;;;;;;4.28;1.20;;;4.60;85.00;;;;;;5073443;28;20025;-75
2023/03/28 01:12:04;;;;;;;5.30;1.33;;;4.60;84.90;;;;;;5074458;28;20033;-74
2023/03/28 01:14:31;;;;;;;4.68;1.30;;;4.50;84.90;;;;;;5073478;28;20029;-74
2023/03/28 01:16:56;;;;;;;4.60;1.60;;;4.50;85.00;;;;;;5073316;28;20033;-74
2023/03/28 01:19:44;;;;;;;3.85;1.52;;;4.50;85.00;;;;;;5074316;28;20059;-75
2023/03/28 01:22:32;;;;;;;3.83;1.45;;;4.50;85.00;;;;;;5074292;28;20029;-74
2023/03/28 01:25:12;;;;;;;5.10;1.65;;;4.40;85.10;;;;;;5074259;28;20021;-74
2023/03/28 01:28:04;;;;;;;5.38;1.38;;;4.40;85.40;;;;;;5074050;28;20456;-75
2023/03/28 01:30:38;;;;;;;5.07;1.55;;;4.40;85.30;;;;;;5074152;28;20017;-75
2023/03/28 01:33:13;;;;;;;7.85;1.40;;;4.40;85.00;;;;;;5074059;28;20080;-74
2023/03/28 01:36:00;;;;;;;5.45;1.40;;;4.40;85.30;;;;;;5074002;28;20036;-75
2023/03/28 01:38:43;;;;;;;5.13;1.70;;;4.30;85.50;;;;;;5073710;28;20080;-74
2023/03/28 01:41:18;;;;;;;4.85;1.63;;;4.30;85.30;;;;;;5074097;28;20033;-74
2023/03/28 01:43:55;;;;;;;7.78;1.83;;;4.20;85.60;;;;;;5072894;28;20040;-75
2023/03/28 01:46:30;;;;;;;4.50;1.55;;;4.20;85.90;;;;;;5073989;28;20451;-75
2023/03/28 01:49:05;;;;;;;3.95;1.48;;;4.20;86.00;;;;;;5073979;28;20052;-74
2023/03/28 01:51:49;;;;;;;6.65;2.25;;;4.30;86.00;;;;;;5073673;28;20035;-74
2023/03/28 01:54:34;;;;;;;5.95;1.25;;;4.20;86.90;;;;;;5073836;28;20028;-75
2023/03/28 01:57:09;;;;;;;2.85;1.30;;;4.20;86.10;;;;;;5073802;28;20036;-74
2023/03/28 01:59:43;;;;;;;3.53;1.35;;;4.10;86.20;;;;;;5073785;28;20024;-74
2023/03/28 02:02:30;;;;;;;5.80;1.30;;;4.10;86.20;;;;;;5073648;28;20020;-74
2023/03/28 02:04:58;;;;;;;4.50;1.50;;;4.00;86.20;;;;;;5072506;28;20040;-75
2023/03/28 02:07:26;;;;;;;6.20;1.48;;;4.00;86.30;;;;;;5073492;28;20064;-74
2023/03/28 02:09:53;;;;;;;5.30;2.05;;;4.00;86.30;;;;;;5073450;28;20052;-74
2023/03/28 02:12:25;;;;;;;5.30;1.70;;;4.00;86.50;;;;;;5072398;28;20021;-74
2023/03/28 02:14:53;;;;;;;5.97;1.63;;;3.90;86.80;;;;;;5073465;28;20562;-74
2023/03/28 02:17:23;;;;;;;4.53;1.30;;;4.00;86.90;;;;;;5073314;28;20036;-74
2023/03/28 02:19:54;;;;;;;5.85;1.45;;;4.00;86.90;;;;;;5073298;28;20088;-75
2023/03/28 02:22:31;;;;;;;3.20;1.48;;;4.00;86.70;;;;;;5073255;28;20061;-74
2023/03/28 02:24:57;;;;;;;3.28;1.85;;;4.00;86.90;;;;;;5073293;28;20029;-74
2023/03/28 02:27:23;;;;;;;5.38;1.40;;;4.00;86.70;;;;;;5073155;28;20024;-75
2023/03/28 02:29:49;;;;;;;2.28;1.33;;;4.00;86.80;;;;;;5073303;28;20029;-74
2023/03/28 02:32:16;;;;;;;6.78;1.83;;;4.00;86.80;;;;;;5072235;28;20067;-74
2023/03/28 02:34:44;;;;;;;3.50;1.55;;;3.90;86.70;;;;;;5073137;28;20020;-75
2023/03/28 02:37:54;;;;;;;8.02;1.80;;;3.90;86.70;;;;;;5072719;28;20055;-75
2023/03/28 02:40:34;;;;;;;5.60;1.75;;;3.90;86.70;;;;;;5072346;28;20466;-74
2023/03/28 02:43:22;;;;;;;6.65;2.00;;;3.80;87.00;;;;;;5073007;28;20033;-74
2023/03/28 02:46:07;;;;;;;2.78;1.55;;;3.80;87.20;;;;;;5073070;28;20020;-74
2023/03/28 02:48:51;;;;;;;5.55;1.70;;;3.70;87.30;;;;;;5073069;28;20017;-74
2023/03/28 02:51:22;;;;;;;6.68;1.90;;;3.70;87.50;;;;;;5073001;28;20029;-74
2023/03/28 02:54:16;;;;;;;4.90;1.90;;;3.70;87.60;;;;;;5072076;28;20107;-74
2023/03/28 02:56:52;;;;;;;5.80;2.33;;;3.70;87.50;;;;;;5072985;28;20025;-74
2023/03/28 02:59:22;;;;;;;3.90;1.75;;;3.60;87.50;;;;;;5073080;28;20048;-74
2023/03/28 03:01:48;;;;;;;3.67;1.88;;;3.60;87.70;;;;;;5072833;28;20474;-74
2023/03/28 03:04:16;;;;;;;3.53;1.73;;;3.60;87.80;;;;;;5072844;28;20024;-75
2023/03/28 03:06:44;;;;;;;7.25;1.80;;;3.60;87.70;;;;;;5072833;28;20025;-74
2023/03/28 03:09:10;;;;;;;3.58;2.30;;;3.60;87.70;;;;;;5071916;28;20488;-74
2023/03/28 03:11:36;;;;;;;4.18;1.88;;;3.60;87.70;;;;;;5072766;28;20048;-75
2023/03/28 03:14:02;;;;;;;6.22;1.98;;;3.60;87.80;;;;;;5072758;28;20037;-74
2023/03/28 03:16:28;;;;;;;5.60;2.38;;;3.60;87.90;;;;;;5072708;28;20025;-74
2023/03/28 03:18:55;;;;;;;4.85;2.03;;;3.50;88.10;;;;;;5071822;28;20025;-75
2023/03/28 03:21:22;;;;;;;4.85;2.30;;;3.50;88.10;;;;;;5072645;28;20093;-74
2023/03/28 03:23:49;;;;;;;6.30;1.85;;;3.50;88.30;;;;;;5071755;28;20081;-74
2023/03/28 03:26:15;;;;;;;6.90;1.92;;;3.50;88.40;;;;;;5072512;28;20096;-74
2023/03/28 03:28:40;;;;;;;7.75;1.98;;;3.40;88.40;;;;;;5071674;28;20028;-74
2023/03/28 03:31:06;;;;;;;6.53;2.00;;;3.40;88.60;;;;;;5071616;28;20029;-74
2023/03/28 03:33:32;;;;;;;3.22;1.80;;;3.50;88.60;;;;;;5072708;28;20040;-74
2023/03/28 03:35:58;;;;;;;4.07;1.70;;;3.50;88.40;;;;;;5072595;28;20025;-74
2023/03/28 03:38:24;;;;;;;5.07;1.75;;;3.50;88.30;;;;;;5071357;28;20041;-75
2023/03/28 03:40:49;;;;;;;5.05;2.03;;;3.50;88.20;;;;;;5071572;28;20020;-74
2023/03/28 03:43:15;;;;;;;3.55;2.00;;;3.50;88.30;;;;;;5071523;28;20040;-75
2023/03/28 03:45:42;;;;;;;8.00;2.80;;;3.50;88.20;;;;;;5071556;28;20088;-75
2023/03/28 03:48:08;;;;;;;9.35;2.28;;;3.50;88.50;;;;;;5071568;28;20028;-75
2023/03/28 03:50:35;;;;;;;7.88;2.53;;;3.50;88.30;;;;;;5074282;28;20045;-74
2023/03/28 03:53:01;;;;;;;7.53;2.30;;;3.50;88.30;;;;;;5076035;28;20032;-74
2023/03/28 03:55:26;;;;;;;4.03;2.00;;;3.50;88.20;;;;;;5075941;28;20040;-75
2023/03/28 03:57:52;;;;;;;4.40;2.20;;;3.50;88.30;;;;;;5074857;28;20029;-75
2023/03/28 04:00:18;;;;;;;3.28;2.00;;;3.40;88.30;;;;;;5075821;28;20033;-74
2023/03/28 04:02:44;;;;;;;5.65;2.60;;;3.50;88.20;;;;;;5074662;28;20025;-74
2023/03/28 04:05:09;;;;;;;5.68;2.17;;;3.40;88.20;;;;;;5074917;28;20032;-74
2023/03/28 04:07:36;;;;;;;5.18;2.20;;;3.40;88.20;;;;;;5058162;28;20036;-74
2023/03/28 04:10:03;;;;;;;5.57;2.42;;;3.40;88.20;;;;;;5074751;28;20025;-74
2023/03/28 04:12:29;;;;;;;3.65;2.20;;;3.40;88.20;;;;;;5075622;28;20021;-74
2023/03/28 04:14:55;;;;;;;6.60;2.47;;;3.40;88.20;;;;;;5075569;28;20025;-75
2023/03/28 04:17:22;;;;;;;4.07;2.20;;;3.40;88.20;;;;;;5074798;28;20021;-75
2023/03/28 04:19:48;;;;;;;6.45;2.67;;;3.30;88.30;;;;;;5075603;28;20043;-74
2023/03/28 04:22:17;;;;;;;5.40;2.45;;;3.30;88.30;;;;;;5075332;28;20017;-74
2023/03/28 04:24:43;;;;;;;4.45;2.53;;;3.30;88.50;;;;;;5074440;28;20393;-74
2023/03/28 04:27:12;;;;;;;5.80;2.60;;;3.30;88.40;;;;;;5075261;28;20048;-74
2023/03/28 04:29:40;;;;;;;7.53;2.80;;;3.30;88.60;;;;;;5074266;28;20044;-74
2023/03/28 04:32:06;;;;;;;9.45;2.80;;;3.30;88.70;;;;;;5075227;28;20032;-74
2023/03/28 04:34:32;;;;;;;6.13;2.30;;;3.30;88.70;;;;;;5074197;28;20036;-74
2023/03/28 04:37:00;;;;;;;4.07;2.58;;;3.20;88.70;;;;;;5074218;28;20025;-74
2023/03/28 04:39:32;;;;;;;8.52;2.95;;;3.20;88.90;;;;;;5074953;28;20045;-74
2023/03/28 04:42:03;;;;;;;7.45;2.47;;;3.20;88.90;;;;;;5075005;28;20075;-74
2023/03/28 04:44:29;;;;;;;5.53;2.67;;;3.20;88.80;;;;;;5075063;28;20053;-74
2023/03/28 04:46:55;;;;;;;3.97;2.47;;;3.20;88.80;;;;;;5075012;28;20537;-74
2023/03/28 04:49:21;;;;;;;5.90;2.30;;;3.10;88.90;;;;;;5073980;28;20013;-74
2023/03/28 04:51:47;;;;;;;5.53;2.83;;;3.10;89.10;;;;;;5073944;28;20052;-74
2023/03/28 04:54:13;;;;;;;7.32;3.10;;;3.10;89.20;;;;;;5073830;28;20075;-75
2023/03/28 04:56:39;;;;;;;5.15;2.90;;;3.10;89.30;;;;;;5074880;28;20036;-74
2023/03/28 04:59:05;;;;;;;6.18;2.85;;;3.10;89.40;;;;;;5073860;28;20029;-75
2023/03/28 05:01:31;;;;;;;4.72;2.92;;;3.10;89.30;;;;;;5074222;28;20029;-74
2023/03/28 05:03:57;;;;;;;10.02;3.17;;;3.10;89.20;;;;;;5074602;28;20079;-75
2023/03/28 05:06:26;;;;;;;9.45;2.85;;;3.10;89.30;;;;;;5074596;28;20033;-74
2023/03/28 05:08:51;;;;;;;6.68;3.40;;;3.10;89.30;;;;;;5074575;28;20048;-74
2023/03/28 05:11:17;;;;;;;6.55;2.95;;;3.10;89.30;;;;;;5074466;28;20037;-74
2023/03/28 05:13:43;;;;;;;9.52;3.20;;;3.00;89.30;;;;;;5073353;28;20033;-75
2023/03/28 05:16:08;;;;;;;6.75;3.10;;;3.00;89.80;;;;;;5073669;28;20088;-75
2023/03/28 05:18:34;;;;;;;8.68;3.13;;;3.00;90.00;;;;;;5074329;28;20041;-74
2023/03/28 05:30:12;;;;;;;7.68;3.08;;;3.00;90.10;;;;;;5074292;28;20029;-75
2023/03/28 05:32:47;;;;;;;9.15;3.58;;;3.00;90.10;;;;;;5074056;28;20048;-74
2023/03/28 05:35:14;;;;;;;5.70;2.85;;;3.00;90.10;;;;;;5056523;28;20056;-74
2023/03/28 05:37:40;;;;;;;5.15;2.80;;;3.00;90.10;;;;;;5073223;28;20017;-74
2023/03/28 05:40:07;;;;;;;11.50;3.95;;;3.00;90.10;;;;;;5072723;28;20053;-74
2023/03/28 05:42:34;;;;;;;7.82;3.72;;;3.10;90.10;;;;;;5073836;28;20025;-74
2023/03/28 05:45:01;;;;;;;6.63;3.88;;;3.10;90.10;;;;;;5072881;28;20021;-75
2023/03/28 05:47:26;;;;;;;8.95;3.42;;;3.10;90.20;;;;;;5073795;28;20017;-74
2023/03/28 05:49:52;;;;;;;8.73;3.70;;;3.10;90.20;;;;;;5072908;28;20051;-74
2023/03/28 05:52:17;;;;;;;7.55;3.58;;;3.10;90.20;;;;;;5072701;28;20549;-74
2023/03/28 05:54:43;;;;;;;7.82;3.90;;;3.10;90.10;;;;;;5072718;28;20168;-74
2023/03/28 05:57:09;;;;;;;8.30;3.67;;;3.10;90.10;;;;;;5073618;28;20021;-74
2023/03/28 05:59:39;;;;;;;10.57;3.75;;;3.10;90.10;;;;;;5072726;28;20085;-75
2023/03/28 06:02:08;;;;;;;6.75;3.35;;;3.10;90.10;;;;;;5073512;28;20085;-75
2023/03/28 06:04:33;;;;;;;7.18;3.28;;;3.10;90.10;;;;;;5072502;28;20021;-74
2023/03/28 06:07:00;;;;;;;8.60;3.53;;;3.10;90.10;;;;;;5072519;28;20049;-75
2023/03/28 06:09:30;;;;;;;14.93;3.67;;;3.10;90.10;;;;;;5073498;28;20021;-74
2023/03/28 06:11:56;;;;;;;7.38;3.80;;;3.10;90.20;;;;;;5071747;28;20032;-75
2023/03/28 06:14:22;;;;;;;10.05;3.90;;;3.10;90.10;;;;;;5073334;28;20055;-75
2023/03/28 06:16:48;;;;;;;7.35;4.05;;;3.10;90.20;;;;;;5072303;28;20029;-74
2023/03/28 06:19:13;;;;;;;7.13;3.95;;;3.10;90.30;;;;;;5073335;28;20075;-75
2023/03/28 06:21:39;;;;;;;8.70;4.10;;;3.10;90.40;;;;;;5072408;28;20065;-75
2023/03/28 06:24:05;;;;;;;7.32;4.15;;;3.10;90.40;;;;;;5072293;28;20063;-75
2023/03/28 06:26:30;;;;;;;7.95;3.97;;;3.10;90.50;;;;;;5072090;28;20029;-75
2023/03/28 06:28:56;;;;;;;8.10;4.20;;;3.10;91.10;;;;;;5073171;28;20049;-75
2023/03/28 06:31:22;;;;;;;9.63;4.22;;;3.10;90.80;;;;;;5073099;28;20056;-75
2023/03/28 06:33:47;;;;;;;8.23;4.15;;;3.10;90.80;;;;;;5073087;28;20056;-75
2023/03/28 06:36:13;;;;;;;9.02;3.60;;;3.10;91.00;;;;;;5073091;28;20025;-74
2023/03/28 06:38:39;;;;;;;12.27;4.57;;;3.10;91.10;;;;;;5072903;28;20045;-75
2023/03/28 06:41:05;;;;;;;8.77;3.95;;;3.10;91.10;;;;;;5072007;28;20025;-75
2023/03/28 06:43:31;;;;;;;11.07;4.72;;;3.10;91.40;;;;;;5071956;28;20394;-75
2023/03/28 06:45:56;;;;;;;11.95;4.60;;;3.10;91.30;;;;;;5072985;28;20052;-74
2023/03/28 06:48:28;;;;;;;7.93;4.93;;;3.20;91.40;;;;;;5055543;28;20038;-75
2023/03/28 06:50:54;;;;;;;9.70;5.00;;;3.20;91.60;;;;;;5072229;28;20056;-75
2023/03/28 06:53:19;;;;;;;10.32;5.15;;;3.20;91.80;;;;;;5072035;28;20414;-75
2023/03/28 06:55:45;;;;;;;12.27;5.55;;;3.30;91.90;;;;;;5071976;28;20036;-75
2023/03/28 06:58:11;;;;;;;10.27;5.43;;;3.30;92.10;;;;;;5072865;28;20033;-75
2023/03/28 07:00:37;;;;;;;8.77;5.05;;;3.40;92.60;;;;;;5071875;28;20033;-75
2023/03/28 07:03:03;;;;;;;10.30;5.25;;;3.50;92.60;;;;;;5072513;28;20052;-75
2023/03/28 07:05:29;;;;;;;9.38;5.43;;;3.50;92.80;;;;;;5071325;28;20028;-74
2023/03/28 07:07:55;;;;;;;9.98;4.78;;;3.60;92.80;;;;;;5071839;28;20056;-75
2023/03/28 07:10:21;;;;;;;8.32;4.85;;;3.70;92.50;;;;;;5072778;28;20021;-74
2023/03/28 07:12:47;;;;;;;11.65;5.40;;;3.80;92.10;;;;;;5072734;28;20025;-75
2023/03/28 07:15:13;;;;;;;9.77;5.18;;;3.80;92.10;;;;;;5055158;28;20036;-75
2023/03/28 07:17:38;;;;;;;11.55;5.25;;;3.90;92.00;;;;;;5072742;28;20060;-75
2023/03/28 07:20:05;;;;;;;9.55;5.35;;;4.00;91.70;;;;;;5072706;28;20089;-75
2023/03/28 07:22:31;;;;;;;12.50;5.75;;;4.00;91.60;;;;;;5072632;28;20428;-75
2023/03/28 07:24:56;;;;;;;10.50;5.90;;;4.00;91.60;;;;;;5076339;28;20028;-75
2023/03/28 07:27:22;;;;;;;13.13;5.88;;;4.10;91.70;;;;;;5076379;28;20407;-75
2023/03/28 07:29:48;;;;;;;11.82;5.65;;;4.10;92.00;;;;;;5076403;28;20044;-75
2023/03/28 07:32:14;;;;;;;11.65;5.57;;;4.10;92.70;;;;;;5076393;28;20032;-75
2023/03/28 07:34:40;;;;;;;9.65;5.40;;;4.10;92.50;;;;;;5076361;28;20021;-75
2023/03/28 07:37:07;;;;;;;13.23;6.03;;;4.20;92.20;;;;;;5076250;28;20052;-75
2023/03/28 07:39:33;;;;;;;11.23;6.15;;;4.30;92.20;;;;;;5076087;28;20036;-75
2023/03/28 07:41:59;;;;;;;10.93;5.32;;;4.40;92.40;;;;;;5075289;28;20074;-75
2023/03/28 07:44:25;;;;;;;10.35;6.10;;;4.40;92.30;;;;;;5075142;28;20052;-76
2023/03/28 07:46:51;;;;;;;12.23;6.13;;;4.40;92.20;;;;;;5076094;28;20025;-76
2023/03/28 07:49:19;;;;;;;15.30;6.78;;;4.40;91.80;;;;;;5075121;28;20025;-75
2023/03/28 07:51:46;;;;;;;14.82;6.50;;;4.50;92.60;;;;;;5076049;28;20053;-75
2023/03/28 07:54:16;;;;;;;10.80;5.68;;;4.50;92.40;;;;;;5074960;28;20072;-75
2023/03/28 07:56:45;;;;;;;13.98;6.63;;;4.60;92.60;;;;;;5075949;28;20021;-75
2023/03/28 07:59:12;;;;;;;9.77;5.68;;;4.70;93.00;;;;;;5075118;28;20032;-75
2023/03/28 08:01:42;;;;;;;10.73;5.88;;;4.80;92.40;;;;;;5074868;28;20032;-75
2023/03/28 08:04:09;;;;;;;11.13;5.90;;;4.80;92.50;;;;;;5074900;28;20092;-75
2023/03/28 08:06:37;;;;;;;6.85;3.75;;;4.90;91.80;;;;;;5075773;28;20024;-75
2023/03/28 08:09:14;;;;;;;8.50;4.97;;;4.90;90.70;;;;;;5074729;28;20017;-76
2023/03/28 08:11:41;;;;;;;15.73;5.03;;;5.00;91.40;;;;;;5075751;28;20044;-75
2023/03/28 08:14:09;;;;;;;6.53;3.78;;;5.10;91.90;;;;;;5074810;28;20035;-75
2023/03/28 08:16:35;;;;;;;10.90;4.68;;;5.20;90.90;;;;;;5075583;28;20021;-76
2023/03/28 08:19:02;;;;;;;16.30;5.72;;;5.30;91.20;;;;;;5075513;28;20047;-75
2023/03/28 08:21:31;;;;;;;9.27;5.15;;;5.40;91.50;;;;;;5075395;28;20168;-75
2023/03/28 08:23:57;;;;;;;7.65;4.50;;;5.50;91.50;;;;;;5074601;28;20021;-75
2023/03/28 08:26:23;;;;;;;8.20;4.97;;;5.70;91.20;;;;;;5074461;28;20055;-76
2023/03/28 08:28:50;;;;;;;10.40;5.40;;;5.70;90.60;;;;;;5074371;28;20036;-75
2023/03/28 08:31:16;;;;;;;12.77;4.80;;;5.70;90.70;;;;;;5075445;28;20021;-76
2023/03/28 08:33:47;;;;;;;11.07;4.10;;;5.70;91.00;;;;;;5075236;28;20068;-75
2023/03/28 08:36:13;;;;;;;10.48;4.57;;;5.80;91.00;;;;;;5074602;28;20085;-75
2023/03/28 08:38:44;;;;;;;9.70;3.92;;;5.80;90.40;;;;;;5075003;28;20051;-75
2023/03/28 08:41:47;;;;;;;7.00;3.53;;;5.80;89.90;;;;;;5075130;28;20036;-75
2023/03/28 08:44:25;;;;;;;;;;;5.80;89.30;;;;;;5075465;28;20058;-75
2023/03/28 08:46:56;;;;;;;9.48;4.10;;;5.90;90.60;;;;;;5074997;28;19916;-76
2023/03/28 08:49:22;;;;;;;12.43;4.55;;;6.00;88.80;;;;;;5075006;28;20021;-75
2023/03/28 08:51:55;;;;;;;9.10;4.47;;;6.00;87.10;;;;;;5074917;28;20393;-75
2023/03/28 08:54:21;;;;;;;8.43;5.22;;;6.00;89.60;;;;;;5075077;28;20028;-76
2023/03/28 08:56:57;;;;;;;10.52;3.53;;;6.10;90.70;;;;;;5074911;28;20025;-75
2023/03/28 08:59:37;;;;;;;10.23;3.75;;;6.10;89.40;;;;;;5074931;28;20029;-75
2023/03/28 09:02:16;;;;;;;9.05;3.55;;;6.20;89.60;;;;;;5074713;28;20021;-75
2023/03/28 09:04:42;;;;;;;7.55;3.88;;;6.30;89.40;;;;;;5074710;28;20017;-75
2023/03/28 09:07:25;;;;;;;7.38;3.35;;;6.40;87.90;;;;;;5074594;28;20079;-76
2023/03/28 09:10:13;;;;;;;8.40;2.50;;;6.50;89.30;;;;;;5073620;28;20530;-75
2023/03/28 09:12:45;;;;;;;5.60;2.67;;;6.50;86.50;;;;;;5074515;28;20410;-76
2023/03/28 09:15:39;;;;;;;7.03;2.53;;;6.50;84.10;;;;;;5074629;28;20099;-75
2023/03/28 09:18:30;;;;;;;7.45;3.25;;;6.60;83.90;;;;;;5067098;28;20295;-75
2023/03/28 09:20:59;;;;;;;5.53;2.22;;;6.70;84.70;;;;;;5073379;28;20029;-75
2023/03/28 09:23:43;;;;;;;7.20;2.05;;;6.70;84.30;;;;;;5074211;28;20060;-75
2023/03/28 09:26:23;;;;;;;2.25;1.45;;;6.60;81.80;;;;;;5073123;28;20021;-75
2023/03/28 09:29:03;;;;;;;5.20;2.17;;;6.60;80.90;;;;;;5074269;28;20025;-75
2023/03/28 09:31:38;;;;;;;3.90;2.08;;;6.80;82.10;;;;;;5073165;28;20013;-75
2023/03/28 09:34:06;;;;;;;9.45;2.50;;;6.90;82.90;;;;;;5074176;28;20031;-75
2023/03/28 09:36:36;;;;;;;5.32;1.80;;;6.90;79.50;;;;;;5074087;28;20013;-75
2023/03/28 09:39:15;;;;;;;7.55;2.42;;;6.90;81.50;;;;;;5073784;28;20037;-75
2023/03/28 09:41:58;;;;;;;6.20;2.50;;;6.80;79.20;;;;;;5073946;28;20028;-76
2023/03/28 09:44:35;;;;;;;6.78;2.38;;;6.90;81.60;;;;;;5072921;28;20023;-75
2023/03/28 09:47:05;;;;;;;3.17;1.52;;;6.90;79.20;;;;;;5073010;28;20103;-75
2023/03/28 09:49:30;;;;;;;4.78;2.10;;;6.80;79.20;;;;;;5073832;28;20017;-75
2023/03/28 09:51:56;;;;;;;5.05;2.28;;;6.80;77.30;;;;;;5072792;28;20039;-75
2023/03/28 09:54:41;;;;;;;5.22;1.75;;;6.90;76.60;;;;;;5072853;28;20060;-75
2023/03/28 09:57:07;;;;;;;6.63;1.80;;;6.90;76.90;;;;;;5073642;28;20032;-74
2023/03/28 09:59:34;;;;;;;2.80;1.60;;;7.10;79.30;;;;;;5072666;28;20052;-75
2023/03/28 10:02:02;;;;;;;4.32;1.58;;;7.10;79.80;;;;;;5039464;28;20055;-75
2023/03/28 10:04:28;;;;;;;5.30;1.92;;;7.00;77.10;;;;;;5072670;28;20055;-76
2023/03/28 10:07:18;;;;;;;4.78;2.30;;;7.10;78.80;;;;;;5073668;28;20096;-74
2023/03/28 10:09:52;;;;;;;2.85;1.95;;;7.10;78.10;;;;;;5072486;28;20110;-75
2023/03/28 10:12:23;;;;;;;2.88;1.13;;;7.10;80.20;;;;;;5073448;28;20081;-75
2023/03/28 10:14:49;;;;;;;4.25;1.73;;;7.20;76.30;;;;;;5072319;28;20039;-75
2023/03/28 10:17:25;;;;;;;6.60;2.22;;;7.20;77.90;;;;;;5072402;28;20032;-76
2023/03/28 10:19:56;;;;;;;3.78;0.82;;;7.30;77.40;;;;;;5073428;28;20048;-76
2023/03/28 10:22:30;;;;;;;2.90;1.35;;;7.30;76.30;;;;;;5073292;28;20076;-75
2023/03/28 10:24:56;;;;;;;4.05;1.40;;;7.30;76.40;;;;;;5073326;28;20378;-75
2023/03/28 10:27:35;;;;;;;4.18;1.60;;;7.30;75.40;;;;;;5072072;28;20044;-75
2023/03/28 10:30:12;;;;;;;3.08;1.60;;;7.20;73.10;;;;;;5073236;28;20041;-75
2023/03/28 10:32:38;;;;;;;3.72;2.08;;;7.20;75.60;;;;;;5072167;28;20486;-75
2023/03/28 10:35:16;;;;;;;4.65;1.60;;;7.30;77.40;;;;;;5073063;28;20029;-74
2023/03/28 10:37:45;;;;;;;2.10;1.20;;;7.30;75.90;;;;;;5072206;28;20025;-75
2023/03/28 10:40:30;;;;;;;2.67;1.50;;;7.40;74.00;;;;;;5055378;28;20052;-75
2023/03/28 10:42:57;;;;;;;2.50;1.00;;;7.40;74.80;;;;;;5072209;28;20079;-75
2023/03/28 10:45:41;;;;;;;4.30;1.92;;;7.30;72.90;;;;;;5072006;28;20085;-75
2023/03/28 10:48:17;;;;;;;6.45;1.50;;;7.20;73.40;;;;;;5073020;28;20033;-75
2023/03/28 10:50:47;;;;;;;3.35;1.60;;;7.20;73.80;;;;;;5072294;28;20013;-74
2023/03/28 10:53:30;;;;;;;7.78;2.10;;;7.20;74.30;;;;;;5073153;28;20047;-75
2023/03/28 10:56:17;;;;;;;5.32;1.58;;;7.20;74.30;;;;;;5071995;28;20067;-75
2023/03/28 10:59:12;;;;;;;4.70;1.55;;;7.20;75.80;;;;;;5073811;28;20029;-75
2023/03/28 11:01:46;;;;;;;3.28;1.70;;;7.20;72.60;;;;;;4989482;28;20046;-75
2023/03/28 11:04:34;;;;;;;5.57;2.20;;;7.20;72.50;;;;;;5076931;28;20047;-76
2023/03/28 11:07:09;;;;;;;4.38;2.38;;;7.20;75.00;;;;;;5075943;28;20028;-75
2023/03/28 11:09:45;;;;;;;5.40;2.20;;;7.30;72.90;;;;;;5076929;28;20025;-75
2023/03/28 11:12:47;;;;;;;3.05;1.55;;;7.40;75.30;;;;;;5076873;28;20028;-75
2023/03/28 11:15:15;;;;;;;2.65;1.88;;;7.50;74.50;;;;;;5075857;28;20028;-75
2023/03/28 11:18:06;;;;;;;4.72;1.60;;;7.50;75.40;;;;;;5076744;28;20021;-75
2023/03/28 11:20:41;;;;;;;5.75;2.05;;;7.60;75.10;;;;;;5075552;28;20020;-74
2023/03/28 11:23:19;;;;;;;3.78;1.73;;;7.70;78.50;;;;;;5075694;28;20220;-75
2023/03/28 11:26:07;;;;;;;2.17;0.90;;;7.80;72.30;;;;;;5076674;28;20031;-74
2023/03/28 11:28:47;;;;;;;2.40;1.60;;;7.80;72.70;;;;;;5075527;28;20013;-74
2023/03/28 11:31:41;;;;;;;6.65;1.40;;;7.80;70.10;;;;;;5076492;28;20054;-74
2023/03/28 11:34:29;;;;;;;5.40;1.85;;;7.90;72.80;;;;;;5065598;28;20551;-74
2023/03/28 11:37:06;;;;;;;6.03;2.13;;;8.10;72.50;;;;;;5075368;28;20036;-74
2023/03/28 11:39:48;;;;;;;1.85;1.27;;;8.40;72.70;;;;;;5075991;28;20041;-75
2023/03/28 11:42:25;;;;;;;5.38;2.10;;;8.50;69.90;;;;;;5075093;28;20029;-74
2023/03/28 11:45:08;;;;;;;4.82;1.50;;;8.60;69.70;;;;;;5076217;28;20085;-74
2023/03/28 11:47:41;;;;;;;5.20;2.28;;;8.60;69.80;;;;;;5076177;28;20025;-74
2023/03/28 11:50:17;;;;;;;7.35;2.15;;;8.70;70.50;;;;;;5076120;28;20025;-74
2023/03/28 11:52:54;;;;;;;4.40;1.85;;;8.70;70.10;;;;;;5075153;28;20025;-74
2023/03/28 11:55:22;;;;;;;3.03;1.63;;;8.90;68.40;;;;;;5075026;28;20029;-74
2023/03/28 11:57:58;;;;;;;2.35;1.40;;;8.80;68.50;;;;;;5075863;28;20033;-74
2023/03/28 12:00:41;;;;;;;5.15;1.42;;;8.80;69.20;;;;;;5075957;28;20029;-74
2023/03/28 12:03:36;;;;;;;2.42;0.60;;;8.80;67.50;;;;;;5074775;28;20025;-74
2023/03/28 12:06:10;;;;;;;3.83;1.40;;;9.00;66.90;;;;;;5075801;28;20099;-74
2023/03/28 12:08:55;;;;;;;3.40;1.42;;;9.10;65.60;;;;;;5074763;28;20454;-74
2023/03/28 12:11:34;;;;;;;5.15;1.70;;;9.10;64.40;;;;;;5073752;28;20032;-74
2023/03/28 12:14:15;;;;;;;5.78;2.20;;;9.00;64.10;;;;;;5075700;28;20089;-74
2023/03/28 12:16:47;;;;;;;7.85;2.30;;;9.00;64.40;;;;;;5075624;28;20040;-74
2023/03/28 12:19:17;;;;;;;7.15;2.10;;;9.20;66.90;;;;;;5074551;28;20021;-74
2023/03/28 12:21:50;;;;;;;4.45;1.70;;;9.30;64.60;;;;;;5075573;28;20452;-75
2023/03/28 12:24:28;;;;;;;8.57;2.20;;;9.20;65.10;;;;;;5075464;28;20017;-74
2023/03/28 12:27:13;;;;;;;2.22;1.30;;;9.30;63.80;;;;;;5075510;28;20100;-74
2023/03/28 12:29:45;;;;;;;6.35;1.90;;;9.40;65.20;;;;;;5075499;28;20017;-74
2023/03/28 12:32:30;;;;;;;;;;;9.50;65.10;;;;;;5075899;28;20025;-74
2023/03/28 12:35:11;;;;;;;5.38;2.45;;;9.40;60.50;;;;;;5074221;28;19905;-74
2023/03/28 12:38:00;;;;;;;7.03;1.55;;;9.30;60.20;;;;;;5074294;28;20059;-74
2023/03/28 12:40:47;;;;;;;3.20;1.00;;;9.40;63.70;;;;;;5073677;28;20040;-74
2023/03/28 12:43:15;;;;;;;4.35;1.77;;;9.40;59.50;;;;;;5075024;28;20096;-75
2023/03/28 12:45:46;;;;;;;3.33;1.60;;;9.50;57.20;;;;;;5074012;28;20043;-74
2023/03/28 12:48:45;;;;;;;4.20;2.00;;;9.40;61.90;;;;;;5075031;28;20021;-74
2023/03/28 12:51:29;;;;;;;2.97;1.45;;;9.30;62.50;;;;;;5073870;28;20092;-74
2023/03/28 12:54:07;;;;;;;7.40;1.80;;;9.30;59.70;;;;;;5074997;28;20040;-74
2023/03/28 12:56:33;;;;;;;5.57;1.55;;;9.20;59.80;;;;;;5073853;28;20473;-74
2023/03/28 12:58:59;;;;;;;3.65;1.90;;;9.10;60.50;;;;;;5074785;28;20032;-74
2023/03/28 13:01:39;;;;;;;2.00;1.05;;;9.10;60.20;;;;;;5073751;28;20501;-74
2023/03/28 13:04:25;;;;;;;3.90;1.13;;;9.10;59.00;;;;;;5074859;28;20025;-74
2023/03/28 13:07:29;;;;;;;6.30;1.75;;;9.10;57.80;;;;;;5033888;28;20036;-74
2023/03/28 13:09:58;;;;;;;5.10;1.50;;;9.00;56.30;;;;;;5030600;28;20029;-74
2023/03/28 13:12:39;;;;;;;5.53;1.67;;;9.10;59.30;;;;;;5074561;28;20077;-74
2023/03/28 13:15:13;;;;;;;5.75;1.65;;;9.20;58.50;;;;;;5074490;28;20059;-74
2023/03/28 13:17:47;;;;;;;3.47;1.65;;;9.30;60.80;;;;;;5074455;28;20029;-74
2023/03/28 13:20:16;;;;;;;4.63;2.38;;;9.30;60.60;;;;;;5073368;28;20021;-74
2023/03/28 13:22:48;;;;;;;6.40;2.55;;;9.40;62.00;;;;;;5074006;28;20025;-74
2023/03/28 13:25:31;;;;;;;6.70;2.33;;;9.60;61.30;;;;;;5074383;28;20089;-74
2023/03/28 13:28:00;;;;;;;;;;;9.80;61.80;;;;;;5074563;28;20029;-74